Latest Weather Observations for Hay Airport

IDN60801

Issued at 4:05 pm EST Saturday 30 August 2014 (issued every 30 minutes, with the page automatically refreshed every 10 minutes)

About weather observations | Map of weather stations | Latest weather observations for NSW | Other Formats
Station Details ID: 075019 Name: HAY AIRPORT AWS Lat: -34.54 Lon: 144.83 Height: 92.0 m
Data from the previous 72 hours. | See also: Recent months for locations in New South Wales
Date/Time
EST
Temp
°C
App
Temp
°C
Dew
Point
Rel
Hum
%
Delta-T
°C
Wind Press
QNH
hPa
Press
MSL
hPa
Rain
since 9 am
mm
Dir
 
Spd
km/h
Gust
km/h
Spd
kts
Gust
kts
30/04:00pm 21.9 18.2 2.6 28 9.1 ENE 11 19 6 10 1021.2 1021.3 0.0
30/03:30pm 22.2 18.9 2.3 27 9.4 N 9 15 5 8 1021.5 - 0.0
30/03:00pm 22.8 18.6 3.9 29 9.2 N 15 22 8 12 1021.6 1021.7 0.0
30/02:30pm 22.2 18.7 3.3 29 9.1 NE 11 20 6 11 1021.9 - 0.0
30/02:00pm 22.6 18.9 4.2 30 9.0 NNE 13 24 7 13 1022.2 1022.3 0.0
30/01:30pm 21.9 18.6 4.5 32 8.6 NNW 11 24 6 13 1022.8 - 0.0
30/01:00pm 21.6 17.6 5.1 34 8.2 NNE 15 28 8 15 1023.3 1023.3 0.0
30/12:30pm 21.6 17.6 6.7 38 7.6 NNE 17 26 9 14 1023.8 - 0.0
30/12:00pm 20.8 16.8 6.7 40 7.1 NNE 17 24 9 13 1024.3 1024.4 0.0
30/11:30am 20.6 16.3 7.2 42 6.9 N 19 26 10 14 1024.6 - 0.0
30/11:00am 19.5 15.2 6.9 44 6.3 NNE 19 24 10 13 1025.1 1025.2 0.0
30/10:30am 18.8 13.9 6.9 46 6.0 NNE 22 28 12 15 1025.5 - 0.0
30/10:00am 18.1 13.8 7.2 49 5.5 NNE 19 26 10 14 1025.7 1025.8 0.0
30/09:30am 17.0 12.7 7.1 52 4.9 NE 19 24 10 13 1025.9 - 0.0
30/09:00am 15.7 11.7 6.7 55 4.4 NE 17 20 9 11 1026.0 1026.1 0.0
30/08:30am 14.1 10.5 6.7 61 3.6 ENE 15 17 8 9 1025.9 - 0.0
30/08:00am 11.8 8.9 6.3 69 2.6 ENE 11 13 6 7 1025.8 1025.9 0.0
30/07:30am 8.4 5.2 5.3 81 1.4 ENE 11 13 6 7 1025.5 - 0.0
30/07:00am 4.8 1.2 3.0 88 0.7 E 11 13 6 7 1025.3 1025.4 0.0
30/06:30am 3.9 0.2 2.3 89 0.6 E 11 15 6 8 1025.1 - 0.0
30/06:00am 3.1 -0.5 0.7 84 0.9 E 9 11 5 6 1024.7 1024.8 0.0
30/05:30am 3.5 0.4 1.2 85 0.9 E 7 7 4 4 1024.6 - 0.0
30/05:00am 2.9 -0.8 0.1 82 1.0 E 9 9 5 5 1024.4 1024.5 0.0
30/04:30am 3.2 -0.1 0.1 80 1.2 ESE 7 9 4 5 1024.4 - 0.0
30/04:00am 3.7 -0.3 0.2 78 1.3 E 11 13 6 7 1024.4 1024.5 0.0
30/03:30am 4.7 1.5 0.8 76 1.5 E 7 9 4 5 1024.4 - 0.0
30/03:00am 5.7 2.3 1.6 75 1.6 ENE 9 11 5 6 1024.6 1024.7 0.0
30/02:30am 7.1 3.4 2.6 73 1.9 ENE 11 13 6 7 1024.6 - 0.0
30/02:00am 6.1 1.9 1.6 73 1.8 E 13 13 7 7 1024.7 1024.8 0.0
30/01:30am 6.4 2.5 1.3 70 2.0 ENE 11 13 6 7 1024.6 - 0.0
30/01:00am 6.7 3.7 0.6 65 2.4 ENE 6 7 3 4 1024.9 1025.0 0.0
30/12:30am 8.2 4.8 1.6 63 2.7 E 9 13 5 7 1024.7 - 0.0
30/12:00am 8.5 4.7 1.9 63 2.7 E 11 13 6 7 1024.8 1024.9 0.0
 
Date/Time
EST
Temp
°C
App
Temp
°C
Dew
Point
Rel
Hum
%
Delta-T
°C
Wind Press
QNH
hPa
Press
MSL
hPa
Rain
since 9 am
mm
Dir
 
Spd
km/h
Gust
km/h
Spd
kts
Gust
kts
29/11:30pm 8.5 4.3 1.9 63 2.7 E 13 15 7 8 1024.8 - 0.0
29/11:00pm 8.2 4.6 0.4 58 3.1 ESE 9 11 5 6 1024.7 1024.8 0.0
29/10:30pm 8.6 5.0 0.3 56 3.3 SE 9 13 5 7 1024.8 - 0.0
29/10:00pm 9.1 5.5 0.8 56 3.4 SE 9 11 5 6 1025.1 1025.2 0.0
29/09:30pm 10.7 7.2 1.5 53 3.9 S 9 11 5 6 1025.0 - 0.0
29/09:00pm 11.1 8.0 1.4 51 4.1 S 7 11 4 6 1025.1 1025.2 0.0
29/08:30pm 10.9 7.7 0.9 50 4.2 WSW 7 13 4 7 1025.1 - 0.0
29/08:00pm 12.7 11.1 2.3 49 4.5 CALM 0 0 0 0 1025.0 1025.1 0.0
29/07:30pm 13.3 11.5 1.3 44 5.2 CALM 0 0 0 0 1024.9 - 0.0
29/07:00pm 15.0 13.0 0.1 36 6.3 CALM 0 0 0 0 1024.8 1024.9 0.0
29/06:30pm 16.6 14.7 0.7 34 6.9 CALM 0 0 0 0 1024.6 - 0.0
29/06:00pm 19.0 16.9 1.5 31 7.9 S 2 7 1 4 1024.5 1024.6 0.0
29/05:30pm 21.0 19.3 1.8 28 8.9 CALM 0 0 0 0 1024.4 - 0.0
29/05:00pm 22.0 18.6 1.6 26 9.4 SW 9 15 5 8 1024.3 1024.4 0.0
29/04:30pm 22.2 20.1 1.8 26 9.5 W 2 13 1 7 1024.4 - 0.0
29/04:00pm 22.5 19.5 0.9 24 9.9 S 6 15 3 8 1024.4 1024.5 0.0
29/03:30pm 22.9 19.1 1.8 25 9.9 S 11 19 6 10 1024.5 - 0.0
29/03:00pm 22.5 19.2 2.6 27 9.4 W 9 15 5 8 1024.7 1024.8 0.0
29/02:30pm 22.3 16.9 1.3 25 9.7 W 19 20 10 11 1025.1 - 0.0
29/02:00pm 22.6 19.3 2.7 27 9.4 WNW 9 19 5 10 1025.4 1025.5 0.0
29/01:30pm 22.4 19.2 3.0 28 9.3 WNW 9 19 5 10 1025.7 - 0.0
29/01:00pm 21.8 19.1 2.5 28 9.1 SSW 6 19 3 10 1026.2 1026.3 0.0
29/12:30pm 21.1 18.8 2.9 30 8.6 NW 4 13 2 7 1026.9 - 0.0
29/12:00pm 20.7 18.1 3.0 31 8.3 NW 6 11 3 6 1027.5 1027.6 0.0
29/11:30am 20.0 17.3 2.8 32 8.1 NNW 6 13 3 7 1027.8 - 0.0
29/11:00am 19.4 15.9 3.6 35 7.4 WNW 11 17 6 9 1028.0 1028.1 0.0
29/10:30am 19.1 15.6 3.7 36 7.3 NW 11 15 6 8 1028.0 - 0.0
29/10:00am 17.5 13.4 4.1 41 6.3 NNW 15 19 8 10 1028.3 1028.4 0.0
29/09:30am 16.4 12.6 4.1 44 5.8 NNW 13 15 7 8 1028.4 - 0.0
29/09:00am 15.3 11.9 4.1 47 5.2 NNW 11 15 6 8 1028.7 1028.8 0.0
29/08:30am 12.7 10.3 4.4 57 3.8 NW 6 9 3 5 1028.9 - 0.0
29/08:00am 9.9 8.7 4.5 69 2.4 CALM 0 0 0 0 1028.8 1028.9 0.0
29/07:30am 5.7 4.1 2.7 81 1.2 CALM 0 0 0 0 1028.6 - 0.0
29/07:00am 2.1 0.0 -0.6 82 1.0 CALM 0 0 0 0 1028.3 1028.4 0.0
29/06:30am 2.4 0.3 -1.0 78 1.2 CALM 0 0 0 0 1027.9 - 0.0
29/06:00am 2.9 0.9 -0.2 80 1.1 CALM 0 0 0 0 1027.7 1027.8 0.0
29/05:30am 2.4 0.3 -1.0 78 1.2 CALM 0 0 0 0 1027.4 - 0.0
29/05:00am 2.3 0.0 -2.4 71 1.6 CALM 0 0 0 0 1027.3 1027.4 0.0
29/04:30am 4.0 2.0 -0.4 73 1.6 CALM 0 0 0 0 1027.2 - 0.0
29/04:00am 3.7 1.7 -0.3 75 1.5 CALM 0 0 0 0 1027.3 1027.4 0.0
29/03:30am 3.9 1.8 -0.9 71 1.8 CALM 0 0 0 0 1027.2 - 0.0
29/03:00am 4.3 2.2 -0.9 69 1.9 CALM 0 0 0 0 1027.2 1027.3 0.0
29/02:30am 5.0 1.6 -0.6 67 2.1 NE 7 7 4 4 1027.2 - 0.0
29/02:00am 5.0 1.7 0.2 71 1.8 ENE 7 9 4 5 1027.3 1027.4 0.0
29/01:30am 4.7 0.6 -0.5 69 2.0 E 11 13 6 7 1027.7 - 0.0
29/01:00am 4.4 0.9 -1.6 65 2.2 E 7 7 4 4 1027.8 1027.9 0.0
29/12:30am 5.1 1.3 -1.1 64 2.3 ESE 9 9 5 5 1027.9 - 0.0
29/12:00am 5.7 2.6 -0.1 66 2.2 SE 6 11 3 6 1028.0 1028.1 0.0
 
Date/Time
EST
Temp
°C
App
Temp
°C
Dew
Point
Rel
Hum
%
Delta-T
°C
Wind Press
QNH
hPa
Press
MSL
hPa
Rain
since 9 am
mm
Dir
 
Spd
km/h
Gust
km/h
Spd
kts
Gust
kts
28/11:30pm 5.9 2.7 -0.8 62 2.5 SE 6 7 3 4 1027.9 - 0.0
28/11:00pm 6.0 2.5 -1.2 60 2.7 E 7 9 4 5 1027.9 1028.0 0.0
28/10:30pm 7.3 5.0 0.1 60 2.8 SE 2 6 1 3 1028.1 - 0.0
28/10:00pm 7.3 4.9 -0.6 57 3.0 SE 2 6 1 3 1028.0 1028.1 0.0
28/09:30pm 8.1 4.9 -0.4 55 3.3 SSE 6 7 3 4 1028.0 - 0.0
28/09:00pm 9.8 5.9 0.9 54 3.6 S 11 13 6 7 1027.8 1027.9 0.0
28/08:30pm 9.4 6.2 -0.5 50 3.9 S 6 7 3 4 1027.7 - 0.0
28/08:00pm 12.5 10.6 0.3 43 5.0 CALM 0 0 0 0 1027.4 1027.5 0.0
28/07:30pm 14.4 11.2 0.6 39 5.9 ESE 7 11 4 6 1027.1 - 0.0
28/07:00pm 14.3 11.5 -0.6 36 6.2 ESE 4 7 2 4 1027.0 1027.1 0.0
28/06:30pm 16.0 12.8 -0.2 33 6.9 SE 6 9 3 5 1027.0 - 0.0
28/06:00pm 18.4 16.1 0.5 30 7.9 SSE 2 7 1 4 1026.8 1026.9 0.0
28/05:30pm 20.3 17.1 0.7 27 8.8 SE 7 11 4 6 1026.5 - 0.0
28/05:00pm 21.4 17.9 1.1 26 9.3 SSE 9 13 5 7 1026.4 1026.5 0.0
28/04:30pm 21.7 18.6 1.4 26 9.4 SSE 7 15 4 8 1026.2 - 0.0
28/04:00pm 21.8 18.2 0.9 25 9.5 S 9 19 5 10 1026.1 1026.2 0.0
28/03:30pm 21.8 18.3 1.5 26 9.4 S 9 17 5 9 1026.2 - 0.0
28/03:00pm 22.0 18.7 2.7 28 9.1 SSE 9 33 5 18 1026.3 1026.4 0.0
28/02:30pm 21.6 17.3 3.3 30 8.8 SSW 15 22 8 12 1026.5 - 0.0
28/02:00pm 21.5 19.1 4.1 32 8.4 SSE 6 15 3 8 1026.7 1026.8 0.0
28/01:30pm 21.7 18.7 3.9 31 8.6 ESE 9 19 5 10 1027.1 - 0.0
28/01:00pm 21.1 18.9 5.1 35 7.9 NNW 6 13 3 7 1027.4 1027.5 0.0
28/12:30pm 19.9 17.6 4.8 37 7.4 SW 6 15 3 8 1027.9 - 0.0
28/12:00pm 19.7 17.3 4.2 36 7.4 NE 6 13 3 7 1028.2 1028.3 0.0
28/11:30am 19.4 16.6 5.1 39 7.0 NNE 9 13 5 7 1028.6 - 0.0
28/11:00am 18.7 15.5 5.2 41 6.5 N 11 19 6 10 1028.9 1029.0 0.0
28/10:30am 17.2 13.2 4.9 44 5.9 N 15 20 8 11 1029.0 - 0.0
28/10:00am 16.5 12.3 5.5 48 5.3 N 17 20 9 11 1029.2 1029.3 0.0
28/09:30am 15.4 10.7 5.0 50 4.9 N 19 24 10 13 1029.2 - 0.0
28/09:00am 14.6 9.8 4.9 52 4.5 NNE 19 26 10 14 1029.0 1029.1 0.0
28/08:30am 13.6 10.1 5.3 57 3.9 N 13 19 7 10 1028.9 - 0.0
28/08:00am 10.0 8.3 6.0 76 1.8 NNE 4 6 2 3 1028.8 1028.9 0.0
28/07:56am 9.7 7.6 5.9 77 1.8 NNE 6 7 3 4 1028.7 - 0.0
28/07:30am 4.6 1.9 2.5 86 0.9 NE 6 9 3 5 1028.6 - 0.0
28/07:00am 2.6 -0.4 0.7 87 0.7 NE 6 7 3 4 1028.3 1028.4 0.0
28/06:30am 2.8 -0.3 1.2 89 0.6 E 7 9 4 5 1028.1 - 0.0
28/06:00am 4.2 1.3 2.4 88 0.7 N 7 9 4 5 1027.9 1028.0 0.0
28/05:30am 4.1 0.8 2.5 89 0.6 NE 9 9 5 5 1027.6 - 0.0
28/05:00am 4.6 1.7 2.8 88 0.7 ENE 7 9 4 5 1027.4 1027.5 0.0
28/04:30am 4.3 2.6 2.0 85 0.9 CALM 0 0 0 0 1027.3 - 0.0
28/04:00am 3.9 2.2 1.6 85 0.9 CALM 0 0 0 0 1027.3 1027.4 0.0
28/03:30am 4.9 2.2 2.9 87 0.8 S 6 9 3 5 1027.2 - 0.0
28/03:00am 4.6 1.8 2.3 85 0.9 E 6 6 3 3 1027.2 1027.3 0.0
28/02:30am 4.8 1.8 2.0 82 1.1 ENE 7 9 4 5 1027.3 - 0.0
28/02:00am 4.9 1.5 1.9 81 1.2 E 9 9 5 5 1027.3 1027.4 0.0
28/01:30am - - 3.8 - - CALM 0 0 0 0 - - -
28/01:00am 6.2 4.7 2.8 79 1.4 CALM 0 0 0 0 1027.3 1027.4 0.0
28/12:30am 6.5 3.5 4.2 85 1.0 E 9 13 5 7 1027.2 - 0.0
28/12:00am 6.2 4.7 2.8 79 1.4 CALM 0 0 0 0 1027.2 1027.3 0.0
 
Date/Time
EST
Temp
°C
App
Temp
°C
Dew
Point
Rel
Hum
%
Delta-T
°C
Wind Press
QNH
hPa
Press
MSL
hPa
Rain
since 9 am
mm
Dir
 
Spd
km/h
Gust
km/h
Spd
kts
Gust
kts
27/11:30pm 7.4 5.9 3.1 74 1.8 CALM 0 0 0 0 1027.2 - 0.0
27/11:00pm 8.1 6.0 3.8 74 1.8 SSE 4 6 2 3 1027.2 1027.3 0.0
27/10:30pm 9.1 6.5 4.3 72 2.1 SSE 7 9 4 5 1027.2 - 0.0
27/10:00pm 11.0 8.2 5.3 68 2.6 SSE 9 11 5 6 1027.1 1027.2 0.0
27/09:30pm 11.2 8.0 5.3 67 2.7 SSE 11 13 6 7 1027.0 - 0.0
27/09:00pm 11.5 8.8 5.6 67 2.7 S 9 13 5 7 1027.0 1027.1 0.0
27/08:30pm 11.9 9.1 5.1 63 3.1 S 9 11 5 6 1026.8 - 0.0
27/08:00pm 13.1 9.9 5.0 58 3.7 S 11 13 6 7 1026.8 1026.9 0.0
27/07:30pm 14.1 11.1 6.0 58 3.9 SSE 11 13 6 7 1026.6 - 0.0
27/07:00pm 14.9 11.8 5.7 54 4.4 SSE 11 13 6 7 1026.4 1026.5 0.0
27/06:30pm 15.8 12.7 5.4 50 5.0 S 11 13 6 7 1026.1 - 0.0
27/06:00pm 17.9 14.5 5.8 45 5.9 SSE 13 17 7 9 1025.8 1025.9 0.0
27/05:30pm 19.6 15.8 5.6 40 6.9 SSE 15 22 8 12 1025.7 - 0.0
27/05:00pm 20.5 15.7 4.9 36 7.6 SSE 19 28 10 15 1025.5 1025.6 0.0
27/04:30pm 20.9 17.4 5.3 36 7.7 SSE 13 20 7 11 1025.4 - 0.0

Other Formats:

Comma delimited format used in spreadsheet applications
http://www.bom.gov.au/fwo/IDN60801/IDN60801.94702.axf

JavaScript Object Notation format (JSON) in row-major order
http://www.bom.gov.au/fwo/IDN60801/IDN60801.94702.json